Time;durP1;ratioP1;P1;durP2;ratioP2;P2;SDS_P1;SDS_P2;PMS_P1;PMS_P2;Temp;Humidity;BMP_temperature;BMP_pressure;BME280_temperature;BME280_humidity;BME280_pressure;Samples;Min_cycle;Max_cycle;Signal;HPM_P1;HPM_P2
2023/09/19 00:00:33;;;;;;;11.90;10.40;;;;;;;15.96;62.35;100960.23;108065;1254;72449;-79
2023/09/19 00:03:00;;;;;;;12.80;10.90;;;;;;;15.93;62.41;100963.16;108055;1254;72487;-78
2023/09/19 00:05:34;;;;;;;13.90;10.20;;;;;;;15.89;62.53;100969.40;108122;1254;61104;-79
2023/09/19 00:08:04;;;;;;;12.70;10.10;;;;;;;15.86;62.55;100968.72;108099;1254;61163;-78
2023/09/19 00:10:34;;;;;;;13.70;10.50;;;;;;;15.83;62.61;100971.98;108153;1253;74628;-79
2023/09/19 00:13:07;;;;;;;11.70;9.70;;;;;;;15.78;62.58;100972.99;108138;1254;72629;-79
2023/09/19 00:15:40;;;;;;;13.80;10.60;;;;;;;15.73;62.73;100974.38;108349;1254;72629;-78
2023/09/19 00:18:07;;;;;;;13.40;10.40;;;;;;;15.67;62.80;100972.91;108067;1254;62406;-79
2023/09/19 00:20:38;;;;;;;12.40;10.70;;;;;;;15.63;62.93;100970.27;108087;1254;61106;-78
2023/09/19 00:23:05;;;;;;;11.30;10.10;;;;;;;15.57;63.03;100970.05;108165;1257;74505;-78
2023/09/19 00:25:37;;;;;;;15.50;10.30;;;;;;;15.52;63.19;100967.88;108211;1253;71208;-77
2023/09/19 00:28:05;;;;;;;13.10;10.00;;;;;;;15.47;63.30;100970.05;108142;1253;72343;-78
2023/09/19 00:30:32;;;;;;;12.90;9.90;;;;;;;15.41;63.34;100970.20;108093;1253;61849;-78
2023/09/19 00:33:00;;;;;;;13.60;10.20;;;;;;;15.35;63.43;100971.20;108166;1254;61240;-78
2023/09/19 00:35:30;;;;;;;12.00;9.50;;;;;;;15.29;63.66;100969.73;108057;1254;74735;-78
2023/09/19 00:37:57;;;;;;;11.30;9.80;;;;;;;15.23;63.73;100967.89;108097;1254;72907;-78
2023/09/19 00:40:25;;;;;;;12.20;9.90;;;;;;;15.19;63.89;100968.52;108148;1253;72385;-78
2023/09/19 00:42:52;;;;;;;11.20;9.70;;;;;;;15.15;63.95;100968.36;108108;1253;61639;-77
2023/09/19 00:45:20;;;;;;;12.60;10.40;;;;;;;15.09;64.18;100966.03;107959;1254;61205;-77
2023/09/19 00:47:49;;;;;;;11.40;9.90;;;;;;;15.00;64.39;100965.64;108159;1254;73314;-77
2023/09/19 00:50:18;;;;;;;12.20;10.20;;;;;;;14.94;64.73;100964.38;108145;1257;71248;-78
2023/09/19 00:52:50;;;;;;;13.70;10.10;;;;;;;14.90;64.93;100964.88;108089;1254;72395;-78
2023/09/19 00:55:19;;;;;;;13.20;10.10;;;;;;;14.88;65.12;100962.27;108034;1254;61014;-79
2023/09/19 00:57:49;;;;;;;12.40;10.20;;;;;;;14.86;65.21;100965.10;108148;1254;61142;-78
2023/09/19 01:00:19;;;;;;;15.00;10.20;;;;;;;14.83;65.15;100963.88;108219;1253;73450;-77
2023/09/19 01:02:47;;;;;;;11.60;10.30;;;;;;;14.79;65.36;100965.56;108192;1253;72656;-78
2023/09/19 01:05:16;;;;;;;12.00;10.40;;;;;;;14.74;65.42;100967.73;108185;1254;72497;-78
2023/09/19 01:07:48;;;;;;;13.30;10.20;;;;;;;14.72;65.53;100969.03;108172;1254;62154;-77
2023/09/19 01:10:17;;;;;;;12.80;9.80;;;;;;;14.71;65.71;100968.02;108171;1253;60132;-77
2023/09/19 01:13:10;;;;;;;11.90;9.50;;;;;;;14.70;65.75;100972.10;108187;1253;74718;-77
2023/09/19 01:15:42;;;;;;;12.80;10.70;;;;;;;14.68;65.81;100969.86;108104;1254;71794;-78
2023/09/19 01:18:31;;;;;;;12.50;10.50;;;;;;;14.68;65.88;100964.96;108133;1254;72620;-78
2023/09/19 01:21:01;;;;;;;11.50;9.90;;;;;;;14.65;65.86;100959.23;108113;1254;61241;-77
2023/09/19 01:24:05;;;;;;;11.90;10.60;;;;;;;14.63;65.92;100959.27;108069;1258;61215;-78
2023/09/19 01:27:02;;;;;;;12.60;10.50;;;;;;;14.57;65.97;100960.54;108071;1253;74749;-78
2023/09/19 01:29:46;;;;;;;14.10;10.30;;;;;;;14.52;66.13;100963.66;107962;1254;72746;-78
2023/09/19 01:32:21;;;;;;;11.90;10.10;;;;;;;14.48;66.39;100963.00;108099;1254;71570;-77
2023/09/19 01:34:53;;;;;;;14.50;10.80;;;;;;;14.44;66.37;100961.08;108077;1253;62095;-78
2023/09/19 01:37:25;;;;;;;11.50;10.00;;;;;;;14.38;66.49;100962.05;108118;1253;61208;-77
2023/09/19 01:40:11;;;;;;;12.20;9.70;;;;;;;14.31;66.79;100970.93;108108;1253;74449;-78
2023/09/19 01:42:50;;;;;;;12.00;10.40;;;;;;;14.27;66.92;100966.36;108061;1254;71647;-78
2023/09/19 01:45:59;;;;;;;11.70;9.70;;;;;;;14.27;67.07;100964.48;108076;1253;71052;-78
2023/09/19 01:49:02;;;;;;;12.50;9.60;;;;;;;14.27;67.15;100965.29;107551;1260;61812;-78
2023/09/19 01:52:00;;;;;;;14.00;10.70;;;;;;;14.26;67.08;100963.96;108104;1253;61112;-78
2023/09/19 01:54:30;;;;;;;14.50;10.90;;;;;;;14.24;67.19;100960.89;108048;1254;73168;-78
2023/09/19 01:57:09;;;;;;;13.30;10.80;;;;;;;14.21;67.17;100959.34;108052;1254;72726;-77
2023/09/19 01:59:41;;;;;;;13.00;10.50;;;;;;;14.20;67.31;100958.96;107956;1254;72460;-78
2023/09/19 02:02:08;;;;;;;13.20;10.90;;;;;;;14.21;67.17;100957.02;108058;1257;61808;-78
2023/09/19 02:04:35;;;;;;;14.70;10.20;;;;;;;14.22;67.19;100953.02;108048;1254;61266;-78
2023/09/19 02:07:05;;;;;;;12.20;9.70;;;;;;;14.22;67.18;100953.65;108042;1254;74631;-77
2023/09/19 02:09:35;;;;;;;12.90;10.80;;;;;;;14.20;67.16;100951.44;108180;1254;72636;-78
2023/09/19 02:12:03;;;;;;;12.30;10.70;;;;;;;14.19;67.08;100946.57;108011;1254;72765;-77
2023/09/19 02:14:32;;;;;;;12.30;10.50;;;;;;;14.15;67.10;100944.09;108088;1254;62449;-77
2023/09/19 02:16:59;;;;;;;14.70;10.60;;;;;;;14.10;67.20;100947.27;108070;1254;61240;-77
2023/09/19 02:19:27;;;;;;;13.60;10.40;;;;;;;14.08;67.28;100941.83;108042;1254;74572;-78
2023/09/19 02:21:54;;;;;;;11.10;9.80;;;;;;;14.07;67.38;100943.35;108101;1254;71842;-77
2023/09/19 02:24:21;;;;;;;11.90;9.50;;;;;;;14.03;67.25;100939.70;108077;1254;73007;-78
2023/09/19 02:26:48;;;;;;;12.40;9.80;;;;;;;14.01;67.30;100941.21;108040;1253;61141;-78
2023/09/19 02:29:15;;;;;;;11.60;9.50;;;;;;;13.96;67.36;100936.98;108111;1254;61317;-77
2023/09/19 02:31:42;;;;;;;12.30;10.50;;;;;;;13.92;67.46;100933.96;108091;1254;74524;-78
2023/09/19 02:34:09;;;;;;;12.80;9.80;;;;;;;13.87;67.41;100932.58;108065;1254;71241;-78
2023/09/19 02:36:36;;;;;;;13.50;9.60;;;;;;;13.86;67.59;100930.60;108021;1254;72576;-78
2023/09/19 02:39:05;;;;;;;12.30;10.00;;;;;;;13.86;67.56;100935.97;107957;1254;61132;-78
2023/09/19 02:41:32;;;;;;;13.10;10.00;;;;;;;13.87;67.57;100936.61;108038;1253;61180;-78
2023/09/19 02:44:01;;;;;;;11.50;10.00;;;;;;;13.86;67.62;100931.83;108055;1254;74375;-78
2023/09/19 02:46:29;;;;;;;12.90;10.50;;;;;;;13.87;67.70;100932.15;108047;1254;73051;-78
2023/09/19 02:48:56;;;;;;;12.00;10.30;;;;;;;13.90;67.63;100933.86;108034;1253;72452;-78
2023/09/19 02:51:25;;;;;;;14.10;10.60;;;;;;;13.92;67.62;100930.42;108069;1253;61708;-78
2023/09/19 02:53:54;;;;;;;13.60;10.90;;;;;;;13.95;67.51;100927.31;108111;1253;61093;-79
2023/09/19 02:56:22;;;;;;;13.80;10.20;;;;;;;13.96;67.41;100921.72;108028;1254;74336;-78
2023/09/19 02:58:49;;;;;;;12.40;9.90;;;;;;;13.97;67.21;100918.65;107983;1253;71399;-79
2023/09/19 03:01:16;;;;;;;13.60;10.60;;;;;;;13.98;67.30;100914.04;108091;1253;71518;-79
2023/09/19 03:03:44;;;;;;;15.10;10.60;;;;;;;14.00;67.19;100907.11;108083;1257;61810;-78
2023/09/19 03:06:12;;;;;;;13.50;10.90;;;;;;;14.02;67.20;100904.95;108185;1254;61336;-79
2023/09/19 03:08:42;;;;;;;15.10;11.20;;;;;;;14.04;67.20;100901.73;108096;1254;73141;-79
2023/09/19 03:11:11;;;;;;;13.60;11.00;;;;;;;14.05;67.13;100897.77;108071;1254;71149;-77
2023/09/19 03:13:39;;;;;;;14.10;11.10;;;;;;;14.07;67.01;100898.02;108030;1254;72522;-78
2023/09/19 03:16:07;;;;;;;13.20;11.00;;;;;;;14.07;66.98;100898.59;108177;1254;61833;-79
2023/09/19 03:18:34;;;;;;;13.70;10.70;;;;;;;14.09;66.92;100893.34;108106;1254;61067;-77
2023/09/19 03:21:01;;;;;;;14.50;11.60;;;;;;;14.11;66.70;100892.52;108107;1254;74348;-78
2023/09/19 03:23:28;;;;;;;16.10;12.10;;;;;;;14.12;66.72;100892.80;108154;1254;72723;-78
2023/09/19 03:25:56;;;;;;;14.10;12.10;;;;;;;14.14;66.68;100894.14;108039;1253;72504;-78
2023/09/19 03:28:23;;;;;;;15.00;11.80;;;;;;;14.15;66.51;100890.42;108012;1254;61817;-78
2023/09/19 03:31:17;;;;;;;13.80;11.50;;;;;;;14.17;66.36;100889.71;108211;1253;61041;-78
2023/09/19 03:33:46;;;;;;;15.70;11.80;;;;;;;14.19;66.31;100893.16;108170;1254;74780;-78
2023/09/19 03:36:13;;;;;;;17.40;12.30;;;;;;;14.20;66.23;100890.40;108007;1254;72576;-78
2023/09/19 03:38:40;;;;;;;14.80;11.30;;;;;;;14.22;66.12;100892.83;108139;1254;72508;-81
2023/09/19 03:41:08;;;;;;;15.70;12.10;;;;;;;14.19;66.01;100894.39;108248;1254;61996;-77
2023/09/19 03:43:35;;;;;;;14.30;11.80;;;;;;;14.18;66.10;100901.96;108117;1253;61103;-78
2023/09/19 03:46:04;;;;;;;15.00;11.70;;;;;;;14.17;66.16;100900.52;108246;1257;74565;-78
2023/09/19 03:48:32;;;;;;;14.70;11.70;;;;;;;14.16;66.11;100892.15;108161;1254;72634;-79
2023/09/19 03:50:59;;;;;;;14.50;11.30;;;;;;;14.17;66.09;100885.27;108067;1255;73709;-79
2023/09/19 03:53:25;;;;;;;15.60;11.50;;;;;;;14.20;66.03;100891.00;108117;1254;61969;-77
2023/09/19 03:55:52;;;;;;;15.30;10.90;;;;;;;14.23;66.05;100893.36;108006;1254;61246;-79
2023/09/19 03:58:20;;;;;;;14.60;12.20;;;;;;;14.25;65.91;100889.75;108222;1254;73213;-79
2023/09/19 04:00:48;;;;;;;14.30;11.50;;;;;;;14.27;65.96;100887.75;108136;1254;72741;-77
2023/09/19 04:03:20;;;;;;;16.20;11.30;;;;;;;14.30;65.90;100888.61;108155;1257;73023;-78
2023/09/19 04:05:50;;;;;;;16.30;11.70;;;;;;;14.34;65.90;100884.19;108169;1254;61130;-79
2023/09/19 04:08:17;;;;;;;15.20;11.00;;;;;;;14.37;65.82;100884.93;108174;1254;61279;-78
2023/09/19 04:10:45;;;;;;;16.60;12.10;;;;;;;14.40;65.78;100889.65;108068;1254;74688;-77
2023/09/19 04:13:12;;;;;;;14.80;11.70;;;;;;;14.43;65.67;100890.29;108075;1254;72672;-77
2023/09/19 04:15:40;;;;;;;15.70;11.40;;;;;;;14.48;65.64;100887.27;108074;1254;72470;-78
2023/09/19 04:18:07;;;;;;;15.40;11.30;;;;;;;14.54;65.59;100883.19;108116;1253;61243;-79
2023/09/19 04:20:35;;;;;;;17.10;11.30;;;;;;;14.61;65.57;100881.64;108080;1254;61153;-78
2023/09/19 04:23:02;;;;;;;14.40;11.00;;;;;;;14.67;65.59;100882.27;108082;1254;74637;-78
2023/09/19 04:25:29;;;;;;;14.90;11.10;;;;;;;14.74;65.56;100880.29;108064;1254;72257;-78
2023/09/19 04:27:57;;;;;;;15.30;11.50;;;;;;;14.80;65.48;100876.81;108077;1254;73319;-78
2023/09/19 04:30:24;;;;;;;12.40;10.50;;;;;;;14.88;65.32;100876.51;108010;1254;61701;-78
2023/09/19 04:32:51;;;;;;;14.50;11.20;;;;;;;14.97;65.26;100873.33;108112;1254;61247;-78
2023/09/19 04:35:19;;;;;;;13.50;10.80;;;;;;;15.04;65.31;100874.47;108134;1254;72467;-79
2023/09/19 04:37:46;;;;;;;14.00;10.30;;;;;;;15.13;65.19;100871.61;108147;1253;72747;-78
2023/09/19 04:40:17;;;;;;;13.20;11.10;;;;;;;15.21;65.11;100870.48;108086;1253;71610;-77
2023/09/19 04:42:57;;;;;;;14.10;10.60;;;;;;;15.31;65.04;100870.84;107923;1255;61233;-79
2023/09/19 04:45:24;;;;;;;14.20;11.30;;;;;;;15.41;64.87;100873.73;108048;1254;61218;-79
2023/09/19 04:47:51;;;;;;;13.70;10.40;;;;;;;15.50;64.90;100871.08;108049;1254;74867;-78
2023/09/19 04:50:18;;;;;;;12.70;10.10;;;;;;;15.61;64.78;100868.12;108047;1253;71222;-78
2023/09/19 04:52:45;;;;;;;12.40;10.10;;;;;;;15.73;64.60;100866.21;108042;1256;72599;-78
2023/09/19 04:55:24;;;;;;;13.80;10.10;;;;;;;15.84;64.46;100867.63;108147;1254;61218;-77
2023/09/19 04:57:52;;;;;;;13.80;10.20;;;;;;;15.95;64.27;100867.89;108078;1254;61145;-78
2023/09/19 05:00:22;;;;;;;12.00;9.60;;;;;;;16.06;63.98;100865.67;108039;1254;74469;-78
2023/09/19 05:02:52;;;;;;;10.70;9.60;;;;;;;16.17;63.79;100867.27;108103;1254;72800;-77
2023/09/19 05:05:19;;;;;;;11.90;9.80;;;;;;;16.30;63.52;100869.66;108794;1253;72714;-77
2023/09/19 05:07:46;;;;;;;13.00;10.30;;;;;;;16.41;63.25;100865.92;107995;1254;61933;-78
2023/09/19 05:10:13;;;;;;;11.60;9.90;;;;;;;16.51;63.06;100862.40;108007;1254;61122;-78
2023/09/19 05:12:41;;;;;;;11.20;9.80;;;;;;;16.63;62.88;100861.65;108023;1254;74361;-77
2023/09/19 05:15:08;;;;;;;16.80;10.60;;;;;;;16.74;62.55;100862.16;108023;1254;72711;-78
2023/09/19 05:17:35;;;;;;;12.00;10.00;;;;;;;16.83;62.14;100862.77;108099;1254;72658;-77
2023/09/19 05:20:16;;;;;;;11.80;9.90;;;;;;;16.94;62.07;100869.53;108016;1254;61138;-78
2023/09/19 05:22:43;;;;;;;8.80;7.30;;;;;;;17.03;61.91;100864.48;108141;1254;61119;-77
2023/09/19 05:25:10;;;;;;;13.60;9.90;;;;;;;17.13;61.89;100866.77;108101;1254;73412;-77
2023/09/19 05:27:38;;;;;;;13.50;10.30;;;;;;;17.22;61.72;100871.16;108102;1254;72583;-77
2023/09/19 05:30:06;;;;;;;13.30;10.30;;;;;;;17.32;61.64;100870.89;108157;1254;72568;-78
2023/09/19 05:32:33;;;;;;;12.70;10.00;;;;;;;17.44;61.59;100869.89;108170;1254;61754;-77
2023/09/19 05:35:00;;;;;;;12.70;10.30;;;;;;;17.56;61.45;100866.66;108119;1254;61816;-78
2023/09/19 05:37:29;;;;;;;11.30;9.90;;;;;;;17.70;61.41;100869.67;108080;1253;74651;-78
2023/09/19 05:39:57;;;;;;;11.20;9.60;;;;;;;17.82;61.27;100862.35;108189;1253;72627;-78
2023/09/19 05:42:25;;;;;;;13.40;9.30;;;;;;;17.97;60.87;100862.19;108073;1254;72444;-77
2023/09/19 05:44:52;;;;;;;12.10;9.70;;;;;;;18.07;60.36;100859.59;108036;1254;61251;-78
2023/09/19 05:47:20;;;;;;;11.50;9.20;;;;;;;18.18;60.21;100858.05;108059;1254;61333;-78
2023/09/19 05:49:48;;;;;;;10.80;9.00;;;;;;;18.30;59.97;100857.49;108026;1254;75187;-78
2023/09/19 05:52:14;;;;;;;10.60;9.00;;;;;;;18.43;59.73;100858.96;108214;1254;72646;-79
2023/09/19 05:54:42;;;;;;;13.90;9.30;;;;;;;18.55;59.40;100858.71;107988;1257;71047;-76
2023/09/19 05:57:12;;;;;;;12.60;8.70;;;;;;;18.68;59.19;100858.98;108043;1254;62049;-78
2023/09/19 05:59:39;;;;;;;11.00;9.60;;;;;;;18.81;58.85;100860.30;108065;1254;61253;-77
2023/09/19 06:02:11;;;;;;;11.50;9.20;;;;;;;18.93;58.29;100856.45;108020;1254;74748;-77
2023/09/19 06:04:40;;;;;;;12.10;8.80;;;;;;;19.05;57.70;100854.13;108060;1254;72420;-77
2023/09/19 06:07:08;;;;;;;11.10;8.90;;;;;;;19.17;56.94;100853.67;108175;1254;72669;-78
2023/09/19 06:09:35;;;;;;;10.40;8.50;;;;;;;19.29;56.23;100852.42;108139;1254;61189;-77
2023/09/19 06:12:03;;;;;;;11.20;8.60;;;;;;;19.37;55.48;100852.77;108057;1254;61237;-77
2023/09/19 06:14:30;;;;;;;10.80;8.30;;;;;;;19.45;54.89;100850.45;108097;1255;74428;-78
2023/09/19 06:16:58;;;;;;;10.20;7.50;;;;;;;19.51;54.00;100846.77;108097;1254;72781;-77
2023/09/19 06:19:25;;;;;;;11.40;8.40;;;;;;;19.58;53.52;100848.73;107980;1254;72545;-77
2023/09/19 06:21:53;;;;;;;10.80;7.70;;;;;;;19.64;53.33;100847.34;108416;1253;61209;-76
2023/09/19 06:24:21;;;;;;;10.90;8.30;;;;;;;19.71;52.98;100850.70;108089;1254;61067;-77
2023/09/19 06:26:47;;;;;;;8.80;7.20;;;;;;;19.77;52.60;100852.96;108073;1254;74818;-76
2023/09/19 06:29:14;;;;;;;12.30;8.60;;;;;;;19.84;52.30;100852.17;108202;1254;72477;-78
2023/09/19 06:31:41;;;;;;;12.50;7.90;;;;;;;19.92;51.96;100859.35;108070;1255;71410;-76
2023/09/19 06:34:08;;;;;;;10.90;7.90;;;;;;;19.98;51.75;100860.50;107586;1254;702188;-76
2023/09/19 06:36:35;;;;;;;12.50;8.40;;;;;;;20.03;51.66;100857.52;108131;1254;61215;-76
2023/09/19 06:39:04;;;;;;;10.60;8.20;;;;;;;20.11;51.66;100859.11;108089;1253;74408;-77
2023/09/19 06:41:30;;;;;;;11.30;8.00;;;;;;;20.20;51.52;100861.79;108127;1254;72548;-77
2023/09/19 06:44:03;;;;;;;10.70;7.70;;;;;;;20.28;51.52;100855.84;108162;1254;72455;-77
2023/09/19 06:46:32;;;;;;;10.30;8.10;;;;;;;20.37;51.47;100853.80;108075;1259;61102;-77
2023/09/19 06:48:59;;;;;;;15.00;7.80;;;;;;;20.47;51.65;100852.06;108012;1254;60155;-76
2023/09/19 06:51:26;;;;;;;10.40;7.80;;;;;;;20.58;51.44;100856.58;108059;1256;74425;-78
2023/09/19 06:53:54;;;;;;;10.20;7.20;;;;;;;20.69;50.82;100856.27;108141;1254;72570;-77
2023/09/19 06:56:24;;;;;;;9.20;7.10;;;;;;;20.78;50.53;100857.41;108048;1254;72848;-77
2023/09/19 06:58:51;;;;;;;11.20;7.50;;;;;;;20.88;50.23;100858.08;108106;1255;61100;-77
2023/09/19 07:01:18;;;;;;;8.80;7.90;;;;;;;20.97;50.14;100853.93;108130;1257;61278;-78
2023/09/19 07:03:46;;;;;;;7.90;7.00;;;;;;;21.08;50.01;100852.79;108091;1254;74463;-78
2023/09/19 07:06:13;;;;;;;8.90;6.90;;;;;;;21.20;49.85;100856.02;108160;1253;72802;-79
2023/09/19 07:08:40;;;;;;;12.60;8.20;;;;;;;21.32;49.82;100852.83;108138;1254;72579;-79
2023/09/19 07:11:12;;;;;;;9.30;7.20;;;;;;;21.46;49.83;100850.42;108101;1254;61974;-79
2023/09/19 07:13:41;;;;;;;9.30;7.50;;;;;;;21.62;49.64;100852.81;108174;1254;61108;-79
2023/09/19 07:16:19;;;;;;;9.30;7.00;;;;;;;21.77;49.34;100842.15;108111;1254;73438;-77
2023/09/19 07:18:46;;;;;;;9.50;7.40;;;;;;;21.90;48.90;100842.07;108124;1253;71179;-79
2023/09/19 07:21:15;;;;;;;8.80;6.90;;;;;;;22.02;48.52;100838.21;108106;1254;71388;-80
2023/09/19 07:23:42;;;;;;;7.50;6.70;;;;;;;22.12;48.15;100840.56;108069;1255;61263;-79
2023/09/19 07:26:09;;;;;;;9.40;6.80;;;;;;;22.22;48.13;100840.99;108128;1254;61151;-76
2023/09/19 07:28:36;;;;;;;8.40;6.90;;;;;;;22.33;47.91;100837.11;108119;1257;74679;-79
2023/09/19 07:31:04;;;;;;;8.30;6.60;;;;;;;22.42;47.48;100834.69;108062;1257;71279;-79
2023/09/19 07:33:31;;;;;;;7.30;6.20;;;;;;;22.54;47.51;100838.65;108139;1254;73164;-79
2023/09/19 07:35:59;;;;;;;9.10;7.30;;;;;;;22.65;47.35;100838.50;108172;1254;61211;-79
2023/09/19 07:38:28;;;;;;;10.30;7.00;;;;;;;22.77;47.05;100841.11;108208;1259;61129;-78
2023/09/19 07:41:02;;;;;;;9.20;7.00;;;;;;;22.87;46.99;100836.99;108113;1254;73146;-78
2023/09/19 07:43:30;;;;;;;10.90;6.70;;;;;;;22.99;46.66;100837.75;108176;1254;72799;-79
2023/09/19 07:46:00;;;;;;;9.20;6.50;;;;;;;23.10;46.60;100832.63;108179;1256;72471;-79
2023/09/19 07:48:27;;;;;;;7.40;6.20;;;;;;;23.23;46.29;100825.70;108148;1253;61238;-78
2023/09/19 07:50:54;;;;;;;7.60;6.50;;;;;;;23.34;45.95;100823.83;108126;1254;61137;-78
2023/09/19 07:53:22;;;;;;;8.00;6.80;;;;;;;23.49;45.80;100824.86;108136;1254;74381;-78
2023/09/19 07:55:49;;;;;;;9.50;7.20;;;;;;;23.59;45.29;100823.67;108132;1257;71222;-78
2023/09/19 07:58:16;;;;;;;9.30;6.50;;;;;;;23.69;44.72;100819.88;108069;1254;72862;-78
2023/09/19 08:00:43;;;;;;;8.20;6.80;;;;;;;23.77;44.51;100814.45;108199;1254;61318;-77
2023/09/19 08:03:14;;;;;;;8.40;6.70;;;;;;;23.88;43.99;100815.86;108153;1254;61106;-78
2023/09/19 08:05:44;;;;;;;12.20;7.40;;;;;;;24.00;43.59;100811.14;108167;1253;74633;-79
2023/09/19 08:08:14;;;;;;;10.80;7.40;;;;;;;24.11;43.60;100809.77;108196;1254;73148;-79
2023/09/19 08:10:43;;;;;;;11.70;7.20;;;;;;;24.22;43.04;100800.67;108131;1254;73204;-80
2023/09/19 08:13:13;;;;;;;10.00;6.30;;;;;;;24.31;42.32;100804.09;108212;1254;61304;-80
2023/09/19 08:15:46;;;;;;;6.90;5.60;;;;;;;24.39;41.95;100798.88;108243;1253;61314;-79
2023/09/19 08:18:14;;;;;;;6.30;5.20;;;;;;;24.49;41.23;100798.00;108084;1254;73422;-78
2023/09/19 08:20:46;;;;;;;6.30;5.20;;;;;;;24.57;40.46;100794.27;108291;1254;72714;-79
2023/09/19 08:23:13;;;;;;;;;;;;;;;24.68;40.78;100792.80;108122;1254;72506;-77
2023/09/19 08:25:39;;;;;;;6.70;4.90;;;;;;;24.79;39.84;100787.86;108099;1254;61132;-79
2023/09/19 08:28:08;;;;;;;8.50;4.40;;;;;;;24.85;38.96;100789.22;108161;1254;61237;-78
2023/09/19 08:30:37;;;;;;;7.30;5.00;;;;;;;24.94;38.98;100782.73;108053;1254;73526;-79
2023/09/19 08:33:04;;;;;;;6.50;5.00;;;;;;;25.04;38.71;100778.02;108105;1254;71430;-80
2023/09/19 08:35:31;;;;;;;7.90;4.60;;;;;;;25.14;38.20;100770.82;108061;1253;72478;-79
2023/09/19 08:38:03;;;;;;;9.60;4.60;;;;;;;25.24;38.16;100772.55;108063;1259;61263;-80
2023/09/19 08:40:33;;;;;;;5.70;4.60;;;;;;;25.34;38.06;100766.96;108195;1254;62775;-80
2023/09/19 08:43:00;;;;;;;6.50;4.20;;;;;;;25.43;37.07;100766.95;108134;1254;72621;-79
2023/09/19 08:45:28;;;;;;;6.00;4.30;;;;;;;25.50;36.67;100765.39;108262;1254;72690;-80
2023/09/19 08:48:17;;;;;;;6.60;4.10;;;;;;;25.55;36.71;100759.73;108150;1258;72639;-78
2023/09/19 08:50:50;;;;;;;5.40;4.00;;;;;;;25.62;36.20;100768.82;108123;1254;61105;-78
2023/09/19 08:53:27;;;;;;;6.70;4.00;;;;;;;25.69;35.88;100758.73;108162;1254;61215;-79
2023/09/19 08:55:57;;;;;;;5.10;4.40;;;;;;;25.75;35.75;100757.09;108129;1258;74684;-79
2023/09/19 08:58:35;;;;;;;5.50;3.80;;;;;;;25.80;36.11;100758.46;108156;1254;72543;-79
2023/09/19 09:01:02;;;;;;;4.80;4.20;;;;;;;25.83;34.95;100748.41;108102;1259;72971;-79
2023/09/19 09:03:32;;;;;;;5.90;4.20;;;;;;;25.85;34.84;100746.40;108085;1254;61255;-79
2023/09/19 09:05:59;;;;;;;6.30;4.10;;;;;;;25.88;34.91;100749.23;108274;1254;61106;-79
2023/09/19 09:08:26;;;;;;;5.80;4.30;;;;;;;25.93;35.24;100742.61;107954;1254;76014;-79
2023/09/19 09:10:54;;;;;;;8.40;4.50;;;;;;;26.01;34.78;100739.35;108088;1254;73707;-79
2023/09/19 09:28:48;;;;;;;8.60;4.20;;;;;;;26.09;33.21;100733.70;105858;1283;613406;-68
2023/09/19 09:31:25;;;;;;;6.80;4.00;;;;;;;26.60;31.74;100730.98;107283;1267;152084;-69
2023/09/19 09:33:57;;;;;;;6.50;3.80;;;;;;;26.63;31.88;100727.59;107427;1269;59486;-68
2023/09/19 09:36:38;;;;;;;6.90;3.90;;;;;;;26.64;31.65;100723.94;107424;1269;72714;-68
2023/09/19 09:39:24;;;;;;;6.40;4.00;;;;;;;26.65;31.60;100718.71;107499;1264;71477;-67
2023/09/19 09:41:53;;;;;;;5.10;3.80;;;;;;;26.67;31.32;100712.17;107391;1264;72731;-69
2023/09/19 09:44:20;;;;;;;6.90;4.30;;;;;;;26.70;31.57;100706.98;107505;1267;59347;-69
2023/09/19 09:49:33;;;;;;;7.70;4.20;;;;;;;26.76;32.13;100709.15;107419;1264;72492;-70
2023/09/19 09:52:37;;;;;;;4.40;3.70;;;;;;;26.84;32.49;100708.04;107583;1264;73805;-71
2023/09/19 09:55:05;;;;;;;6.70;4.10;;;;;;;26.96;32.47;100702.75;107354;1269;71435;-71
2023/09/19 09:57:34;;;;;;;5.40;3.30;;;;;;;27.05;32.42;100695.48;107422;1267;61457;-71
2023/09/19 10:02:40;;;;;;;5.60;3.70;;;;;;;27.19;31.06;100696.90;107454;1270;71861;-71
2023/09/19 10:08:00;;;;;;;6.00;3.70;;;;;;;27.27;31.17;100690.15;107533;1264;64052;-71
2023/09/19 10:13:07;;;;;;;7.90;3.50;;;;;;;27.40;30.21;100690.29;107864;1258;59505;-71
2023/09/19 10:15:36;;;;;;;5.20;3.40;;;;;;;27.43;30.60;100688.52;107935;1257;75228;-68
2023/09/19 10:18:10;;;;;;;5.50;3.30;;;;;;;27.47;30.07;100684.03;107828;1260;63988;-70
2023/09/19 10:20:38;;;;;;;5.80;3.70;;;;;;;27.51;30.17;100686.92;107781;1259;72676;-70
2023/09/19 10:23:13;;;;;;;7.40;3.80;;;;;;;27.56;30.23;100683.77;107778;1259;59755;-70
2023/09/19 10:25:42;;;;;;;5.90;3.80;;;;;;;27.59;29.89;100682.27;107935;1263;61004;-69
2023/09/19 10:28:11;;;;;;;5.70;3.60;;;;;;;27.64;29.70;100681.79;107852;1260;63000;-69
2023/09/19 10:30:44;;;;;;;6.40;3.70;;;;;;;27.67;29.20;100675.88;107696;1261;64024;-71
2023/09/19 10:33:20;;;;;;;6.00;3.80;;;;;;;27.69;29.37;100673.70;107723;1260;72799;-69
2023/09/19 10:35:51;;;;;;;6.70;3.60;;;;;;;27.70;29.45;100672.23;107618;1260;60670;-72
2023/09/19 10:38:21;;;;;;;6.00;3.70;;;;;;;27.71;29.08;100665.89;107692;1259;60125;-72
2023/09/19 10:40:54;;;;;;;5.20;3.60;;;;;;;27.74;29.38;100661.61;107722;1261;73239;-69
2023/09/19 10:43:33;;;;;;;4.90;3.60;;;;;;;27.75;29.07;100657.79;107753;1260;63804;-72
2023/09/19 10:46:07;;;;;;;5.40;3.90;;;;;;;27.72;28.70;100660.50;107696;1263;72712;-71
2023/09/19 10:48:35;;;;;;;5.40;3.90;;;;;;;27.70;28.48;100658.83;107675;1260;59512;-69
2023/09/19 10:51:28;;;;;;;7.10;3.70;;;;;;;27.65;28.56;100655.39;107610;1260;59762;-70
2023/09/19 10:54:13;;;;;;;6.20;3.60;;;;;;;27.64;28.51;100648.00;107720;1260;74102;-70
2023/09/19 10:56:51;;;;;;;7.50;3.70;;;;;;;27.65;28.14;100646.13;107702;1260;72903;-71
2023/09/19 10:59:20;;;;;;;7.40;3.60;;;;;;;27.66;28.20;100646.68;107565;1260;74917;-71
2023/09/19 11:01:51;;;;;;;5.30;3.10;;;;;;;27.70;28.26;100650.11;107660;1260;61080;-69
2023/09/19 11:04:35;;;;;;;5.50;3.30;;;;;;;27.76;28.67;100644.88;107835;1257;60117;-72
2023/09/19 11:07:14;;;;;;;5.30;3.50;;;;;;;27.85;29.09;100640.54;107887;1257;64253;-68
2023/09/19 11:09:58;;;;;;;5.60;3.60;;;;;;;27.93;28.37;100633.11;107874;1258;73050;-71
2023/09/19 11:12:35;;;;;;;5.80;3.70;;;;;;;27.96;27.97;100631.13;107836;1257;62610;-70
2023/09/19 11:15:10;;;;;;;7.00;3.50;;;;;;;27.98;27.90;100630.05;107917;1257;59488;-69
2023/09/19 11:17:42;;;;;;;6.70;3.50;;;;;;;27.99;27.39;100622.13;107996;1254;60198;-69
2023/09/19 11:22:52;;;;;;;5.40;3.50;;;;;;;27.94;27.58;100625.60;107996;1257;72998;-70
2023/09/19 11:28:14;;;;;;;4.40;3.30;;;;;;;27.94;27.57;100617.76;107937;1254;59515;-71
2023/09/19 11:30:46;;;;;;;4.10;3.40;;;;;;;27.97;27.57;100615.04;108015;1254;59650;-74
2023/09/19 11:33:41;;;;;;;6.40;3.30;;;;;;;28.00;27.44;100610.05;108085;1254;64176;-70
2023/09/19 11:36:14;;;;;;;4.90;3.60;;;;;;;28.00;26.94;100604.48;107957;1254;71652;-70
2023/09/19 11:38:49;;;;;;;6.10;3.70;;;;;;;28.01;27.54;100607.10;108162;1257;63793;-69
2023/09/19 11:41:27;;;;;;;5.70;3.70;;;;;;;28.04;27.49;100600.61;108043;1254;60103;-71
2023/09/19 11:44:03;;;;;;;6.60;3.50;;;;;;;28.05;27.62;100600.25;107910;1254;59541;-69
2023/09/19 11:46:33;;;;;;;7.20;3.30;;;;;;;28.09;28.09;100594.16;108120;1254;64295;-67
2023/09/19 11:49:09;;;;;;;4.90;3.20;;;;;;;28.13;27.46;100595.55;108222;1254;63820;-69
2023/09/19 11:51:42;;;;;;;8.00;3.80;;;;;;;28.13;26.96;100590.73;108047;1257;63863;-68
2023/09/19 11:54:17;;;;;;;8.20;4.00;;;;;;;28.09;27.35;100589.85;108004;1257;59470;-69
2023/09/19 11:56:48;;;;;;;5.40;3.50;;;;;;;28.06;27.19;100587.16;108100;1254;59641;-70